sensor_id;sensor_type;location;lat;lon;timestamp;P1;durP1;ratioP1;P2;durP2;ratioP2
45274;SDS011;31019;43.780;25.948;2024-02-15T00:01:30;34.60;;;32.50;;
45274;SDS011;31019;43.780;25.948;2024-02-15T00:03:57;36.10;;;33.47;;
45274;SDS011;31019;43.780;25.948;2024-02-15T00:06:24;37.17;;;34.78;;
45274;SDS011;31019;43.780;25.948;2024-02-15T00:11:23;39.42;;;36.92;;
45274;SDS011;31019;43.780;25.948;2024-02-15T00:13:50;36.50;;;33.97;;
45274;SDS011;31019;43.780;25.948;2024-02-15T00:16:17;36.78;;;34.25;;
45274;SDS011;31019;43.780;25.948;2024-02-15T00:18:46;36.67;;;33.38;;
45274;SDS011;31019;43.780;25.948;2024-02-15T00:21:12;51.47;;;48.28;;
45274;SDS011;31019;43.780;25.948;2024-02-15T00:23:42;53.40;;;50.20;;
45274;SDS011;31019;43.780;25.948;2024-02-15T00:26:09;48.42;;;45.33;;
45274;SDS011;31019;43.780;25.948;2024-02-15T00:28:37;49.78;;;46.58;;
45274;SDS011;31019;43.780;25.948;2024-02-15T00:31:15;37.83;;;34.90;;
45274;SDS011;31019;43.780;25.948;2024-02-15T00:42:02;34.10;;;31.60;;
45274;SDS011;31019;43.780;25.948;2024-02-15T00:44:31;28.95;;;26.95;;
45274;SDS011;31019;43.780;25.948;2024-02-15T00:47:03;31.42;;;29.15;;
45274;SDS011;31019;43.780;25.948;2024-02-15T00:49:33;32.78;;;30.27;;
45274;SDS011;31019;43.780;25.948;2024-02-15T00:52:02;32.55;;;30.15;;
45274;SDS011;31019;43.780;25.948;2024-02-15T00:54:29;29.52;;;27.45;;
45274;SDS011;31019;43.780;25.948;2024-02-15T00:56:59;30.65;;;28.45;;
45274;SDS011;31019;43.780;25.948;2024-02-15T00:59:33;29.70;;;27.40;;
45274;SDS011;31019;43.780;25.948;2024-02-15T01:02:01;33.22;;;30.42;;
45274;SDS011;31019;43.780;25.948;2024-02-15T01:04:30;33.55;;;31.05;;
45274;SDS011;31019;43.780;25.948;2024-02-15T01:06:59;34.22;;;31.80;;
45274;SDS011;31019;43.780;25.948;2024-02-15T01:09:28;29.27;;;27.17;;
45274;SDS011;31019;43.780;25.948;2024-02-15T01:11:55;31.70;;;29.40;;
45274;SDS011;31019;43.780;25.948;2024-02-15T01:14:33;32.47;;;30.17;;
45274;SDS011;31019;43.780;25.948;2024-02-15T01:17:16;35.40;;;32.65;;
45274;SDS011;31019;43.780;25.948;2024-02-15T01:19:43;31.88;;;29.48;;
45274;SDS011;31019;43.780;25.948;2024-02-15T01:22:10;31.38;;;29.08;;
45274;SDS011;31019;43.780;25.948;2024-02-15T01:24:39;33.10;;;30.70;;
45274;SDS011;31019;43.780;25.948;2024-02-15T01:27:06;33.22;;;30.73;;
45274;SDS011;31019;43.780;25.948;2024-02-15T01:29:34;38.08;;;35.08;;
45274;SDS011;31019;43.780;25.948;2024-02-15T01:32:02;41.03;;;38.22;;
45274;SDS011;31019;43.780;25.948;2024-02-15T01:34:30;44.67;;;41.33;;
45274;SDS011;31019;43.780;25.948;2024-02-15T01:36:57;54.00;;;50.13;;
45274;SDS011;31019;43.780;25.948;2024-02-15T01:39:24;48.80;;;45.30;;
45274;SDS011;31019;43.780;25.948;2024-02-15T01:41:54;52.10;;;48.58;;
45274;SDS011;31019;43.780;25.948;2024-02-15T01:44:21;51.47;;;48.13;;
45274;SDS011;31019;43.780;25.948;2024-02-15T01:46:51;49.75;;;46.42;;
45274;SDS011;31019;43.780;25.948;2024-02-15T01:49:28;50.88;;;47.38;;
45274;SDS011;31019;43.780;25.948;2024-02-15T01:51:55;58.42;;;54.42;;
45274;SDS011;31019;43.780;25.948;2024-02-15T01:54:24;56.97;;;53.20;;
45274;SDS011;31019;43.780;25.948;2024-02-15T01:56:51;42.38;;;39.53;;
45274;SDS011;31019;43.780;25.948;2024-02-15T01:59:21;46.70;;;43.70;;
45274;SDS011;31019;43.780;25.948;2024-02-15T02:01:57;33.08;;;30.65;;
45274;SDS011;31019;43.780;25.948;2024-02-15T02:04:28;35.22;;;32.83;;
45274;SDS011;31019;43.780;25.948;2024-02-15T02:06:57;33.10;;;30.80;;
45274;SDS011;31019;43.780;25.948;2024-02-15T02:09:29;34.22;;;31.83;;
45274;SDS011;31019;43.780;25.948;2024-02-15T02:11:59;32.50;;;30.20;;
45274;SDS011;31019;43.780;25.948;2024-02-15T02:14:27;33.42;;;31.05;;
45274;SDS011;31019;43.780;25.948;2024-02-15T02:16:57;35.53;;;33.05;;
45274;SDS011;31019;43.780;25.948;2024-02-15T02:19:40;34.80;;;32.30;;
45274;SDS011;31019;43.780;25.948;2024-02-15T02:22:11;33.75;;;31.27;;
45274;SDS011;31019;43.780;25.948;2024-02-15T02:24:40;37.50;;;34.75;;
45274;SDS011;31019;43.780;25.948;2024-02-15T02:27:37;37.53;;;34.87;;
45274;SDS011;31019;43.780;25.948;2024-02-15T02:33:00;31.15;;;28.85;;
45274;SDS011;31019;43.780;25.948;2024-02-15T02:37:56;32.05;;;29.75;;
45274;SDS011;31019;43.780;25.948;2024-02-15T02:43:11;33.10;;;30.80;;
45274;SDS011;31019;43.780;25.948;2024-02-15T02:45:41;32.42;;;30.05;;
45274;SDS011;31019;43.780;25.948;2024-02-15T02:48:10;33.20;;;30.90;;
45274;SDS011;31019;43.780;25.948;2024-02-15T02:53:35;34.20;;;31.80;;
45274;SDS011;31019;43.780;25.948;2024-02-15T02:56:03;35.00;;;32.55;;
45274;SDS011;31019;43.780;25.948;2024-02-15T02:58:30;34.15;;;31.65;;
45274;SDS011;31019;43.780;25.948;2024-02-15T03:00:58;35.15;;;32.60;;
45274;SDS011;31019;43.780;25.948;2024-02-15T03:03:26;31.73;;;29.42;;
45274;SDS011;31019;43.780;25.948;2024-02-15T03:06:00;37.38;;;34.58;;
45274;SDS011;31019;43.780;25.948;2024-02-15T03:08:27;33.15;;;30.65;;
45274;SDS011;31019;43.780;25.948;2024-02-15T03:10:57;35.90;;;33.30;;
45274;SDS011;31019;43.780;25.948;2024-02-15T03:13:28;38.75;;;35.80;;
45274;SDS011;31019;43.780;25.948;2024-02-15T03:16:03;35.80;;;33.30;;
45274;SDS011;31019;43.780;25.948;2024-02-15T03:18:31;36.88;;;34.17;;
45274;SDS011;31019;43.780;25.948;2024-02-15T03:23:30;36.67;;;34.05;;
45274;SDS011;31019;43.780;25.948;2024-02-15T03:26:10;37.08;;;34.28;;
45274;SDS011;31019;43.780;25.948;2024-02-15T03:28:38;38.10;;;35.20;;
45274;SDS011;31019;43.780;25.948;2024-02-15T03:31:11;35.33;;;32.72;;
45274;SDS011;31019;43.780;25.948;2024-02-15T03:33:41;32.60;;;30.20;;
45274;SDS011;31019;43.780;25.948;2024-02-15T03:36:08;30.70;;;28.50;;
45274;SDS011;31019;43.780;25.948;2024-02-15T03:38:41;36.92;;;34.28;;
45274;SDS011;31019;43.780;25.948;2024-02-15T03:41:11;36.65;;;33.95;;
45274;SDS011;31019;43.780;25.948;2024-02-15T03:43:41;31.17;;;28.98;;
45274;SDS011;31019;43.780;25.948;2024-02-15T03:46:08;29.80;;;27.60;;
45274;SDS011;31019;43.780;25.948;2024-02-15T03:48:37;33.13;;;30.75;;
45274;SDS011;31019;43.780;25.948;2024-02-15T03:51:05;31.33;;;29.05;;
45274;SDS011;31019;43.780;25.948;2024-02-15T03:53:35;32.83;;;30.42;;
45274;SDS011;31019;43.780;25.948;2024-02-15T03:56:04;30.05;;;27.95;;
45274;SDS011;31019;43.780;25.948;2024-02-15T03:58:31;33.85;;;31.35;;
45274;SDS011;31019;43.780;25.948;2024-02-15T04:01:04;28.15;;;25.95;;
45274;SDS011;31019;43.780;25.948;2024-02-15T04:03:38;29.85;;;27.20;;
45274;SDS011;31019;43.780;25.948;2024-02-15T04:06:11;30.15;;;27.75;;
45274;SDS011;31019;43.780;25.948;2024-02-15T04:08:38;37.35;;;34.75;;
45274;SDS011;31019;43.780;25.948;2024-02-15T04:11:05;73.85;;;69.13;;
45274;SDS011;31019;43.780;25.948;2024-02-15T04:13:35;61.90;;;57.80;;
45274;SDS011;31019;43.780;25.948;2024-02-15T04:16:04;64.95;;;61.05;;
45274;SDS011;31019;43.780;25.948;2024-02-15T04:18:33;55.92;;;52.28;;
45274;SDS011;31019;43.780;25.948;2024-02-15T04:21:04;28.15;;;25.85;;
45274;SDS011;31019;43.780;25.948;2024-02-15T04:23:32;30.02;;;27.73;;
45274;SDS011;31019;43.780;25.948;2024-02-15T04:26:09;49.83;;;46.63;;
45274;SDS011;31019;43.780;25.948;2024-02-15T04:28:38;45.67;;;42.88;;
45274;SDS011;31019;43.780;25.948;2024-02-15T04:31:07;31.02;;;28.73;;
45274;SDS011;31019;43.780;25.948;2024-02-15T04:33:35;30.58;;;28.23;;
45274;SDS011;31019;43.780;25.948;2024-02-15T04:36:04;29.00;;;26.73;;
45274;SDS011;31019;43.780;25.948;2024-02-15T04:38:35;28.38;;;26.23;;
45274;SDS011;31019;43.780;25.948;2024-02-15T04:41:02;54.72;;;50.67;;
45274;SDS011;31019;43.780;25.948;2024-02-15T04:43:36;63.33;;;59.38;;
45274;SDS011;31019;43.780;25.948;2024-02-15T04:46:06;54.90;;;51.28;;
45274;SDS011;31019;43.780;25.948;2024-02-15T04:48:34;54.78;;;51.47;;
45274;SDS011;31019;43.780;25.948;2024-02-15T04:52:22;46.85;;;44.05;;
45274;SDS011;31019;43.780;25.948;2024-02-15T04:54:49;52.35;;;49.15;;
45274;SDS011;31019;43.780;25.948;2024-02-15T04:57:20;50.80;;;47.35;;
45274;SDS011;31019;43.780;25.948;2024-02-15T04:59:48;40.42;;;38.03;;
45274;SDS011;31019;43.780;25.948;2024-02-15T05:02:15;34.25;;;32.35;;
45274;SDS011;31019;43.780;25.948;2024-02-15T05:04:46;35.65;;;33.45;;
45274;SDS011;31019;43.780;25.948;2024-02-15T05:07:12;39.95;;;37.75;;
45274;SDS011;31019;43.780;25.948;2024-02-15T05:09:46;37.38;;;35.47;;
45274;SDS011;31019;43.780;25.948;2024-02-15T05:12:20;25.30;;;23.50;;
45274;SDS011;31019;43.780;25.948;2024-02-15T05:14:49;24.23;;;22.52;;
45274;SDS011;31019;43.780;25.948;2024-02-15T05:17:15;27.45;;;25.35;;
45274;SDS011;31019;43.780;25.948;2024-02-15T05:19:43;49.25;;;45.53;;
45274;SDS011;31019;43.780;25.948;2024-02-15T05:22:18;31.27;;;29.08;;
45274;SDS011;31019;43.780;25.948;2024-02-15T05:27:33;28.38;;;26.58;;
45274;SDS011;31019;43.780;25.948;2024-02-15T05:30:03;26.90;;;25.17;;
45274;SDS011;31019;43.780;25.948;2024-02-15T05:32:33;25.73;;;24.10;;
45274;SDS011;31019;43.780;25.948;2024-02-15T05:35:07;27.13;;;25.33;;
45274;SDS011;31019;43.780;25.948;2024-02-15T05:37:35;26.23;;;24.42;;
45274;SDS011;31019;43.780;25.948;2024-02-15T05:40:02;26.27;;;24.58;;
45274;SDS011;31019;43.780;25.948;2024-02-15T05:42:31;25.40;;;23.75;;
45274;SDS011;31019;43.780;25.948;2024-02-15T05:47:41;25.40;;;23.70;;
45274;SDS011;31019;43.780;25.948;2024-02-15T05:50:09;23.85;;;22.00;;
45274;SDS011;31019;43.780;25.948;2024-02-15T05:52:36;24.65;;;22.98;;
45274;SDS011;31019;43.780;25.948;2024-02-15T05:55:03;22.55;;;21.05;;
45274;SDS011;31019;43.780;25.948;2024-02-15T05:57:32;22.42;;;20.92;;
45274;SDS011;31019;43.780;25.948;2024-02-15T06:02:51;22.20;;;20.70;;
45274;SDS011;31019;43.780;25.948;2024-02-15T06:05:21;24.50;;;22.80;;
45274;SDS011;31019;43.780;25.948;2024-02-15T06:07:56;27.50;;;25.58;;
45274;SDS011;31019;43.780;25.948;2024-02-15T06:10:24;26.17;;;24.27;;
45274;SDS011;31019;43.780;25.948;2024-02-15T06:12:52;29.35;;;26.90;;
45274;SDS011;31019;43.780;25.948;2024-02-15T06:15:22;30.27;;;28.00;;
45274;SDS011;31019;43.780;25.948;2024-02-15T06:17:51;30.80;;;28.42;;
45274;SDS011;31019;43.780;25.948;2024-02-15T06:20:18;31.45;;;28.48;;
45274;SDS011;31019;43.780;25.948;2024-02-15T06:22:46;33.63;;;31.25;;
45274;SDS011;31019;43.780;25.948;2024-02-15T06:25:13;34.33;;;31.83;;
45274;SDS011;31019;43.780;25.948;2024-02-15T06:27:45;32.28;;;29.55;;
45274;SDS011;31019;43.780;25.948;2024-02-15T06:30:17;31.90;;;29.13;;
45274;SDS011;31019;43.780;25.948;2024-02-15T06:33:03;32.63;;;29.92;;
45274;SDS011;31019;43.780;25.948;2024-02-15T06:35:48;35.60;;;33.00;;
45274;SDS011;31019;43.780;25.948;2024-02-15T06:38:32;33.85;;;30.77;;
45274;SDS011;31019;43.780;25.948;2024-02-15T06:41:16;34.90;;;32.03;;
45274;SDS011;31019;43.780;25.948;2024-02-15T06:43:46;38.63;;;35.63;;
45274;SDS011;31019;43.780;25.948;2024-02-15T06:46:15;38.15;;;34.83;;
45274;SDS011;31019;43.780;25.948;2024-02-15T06:48:44;39.88;;;36.88;;
45274;SDS011;31019;43.780;25.948;2024-02-15T06:51:12;38.90;;;36.20;;
45274;SDS011;31019;43.780;25.948;2024-02-15T06:53:42;45.40;;;42.08;;
45274;SDS011;31019;43.780;25.948;2024-02-15T06:56:09;39.63;;;36.90;;
45274;SDS011;31019;43.780;25.948;2024-02-15T06:58:36;40.50;;;37.80;;
45274;SDS011;31019;43.780;25.948;2024-02-15T07:01:05;38.50;;;35.28;;
45274;SDS011;31019;43.780;25.948;2024-02-15T07:03:36;41.00;;;38.05;;
45274;SDS011;31019;43.780;25.948;2024-02-15T07:06:04;34.67;;;32.28;;
45274;SDS011;31019;43.780;25.948;2024-02-15T07:08:35;38.15;;;35.45;;
45274;SDS011;31019;43.780;25.948;2024-02-15T07:11:02;41.67;;;38.20;;
45274;SDS011;31019;43.780;25.948;2024-02-15T07:13:29;37.42;;;34.72;;
45274;SDS011;31019;43.780;25.948;2024-02-15T07:15:59;37.83;;;34.95;;
45274;SDS011;31019;43.780;25.948;2024-02-15T07:18:27;34.60;;;32.10;;
45274;SDS011;31019;43.780;25.948;2024-02-15T07:20:55;35.53;;;32.75;;
45274;SDS011;31019;43.780;25.948;2024-02-15T07:23:26;38.05;;;35.35;;
45274;SDS011;31019;43.780;25.948;2024-02-15T07:25:53;35.22;;;32.63;;
45274;SDS011;31019;43.780;25.948;2024-02-15T07:28:33;34.97;;;32.55;;
45274;SDS011;31019;43.780;25.948;2024-02-15T07:31:01;35.90;;;33.67;;
45274;SDS011;31019;43.780;25.948;2024-02-15T07:33:32;35.10;;;32.80;;
45274;SDS011;31019;43.780;25.948;2024-02-15T07:36:02;36.55;;;33.85;;
45274;SDS011;31019;43.780;25.948;2024-02-15T07:38:35;31.48;;;29.23;;
45274;SDS011;31019;43.780;25.948;2024-02-15T07:41:02;36.20;;;33.80;;
45274;SDS011;31019;43.780;25.948;2024-02-15T07:43:32;34.22;;;31.65;;
45274;SDS011;31019;43.780;25.948;2024-02-15T07:48:51;36.33;;;34.03;;
45274;SDS011;31019;43.780;25.948;2024-02-15T07:51:21;34.20;;;31.90;;
45274;SDS011;31019;43.780;25.948;2024-02-15T07:53:49;32.67;;;30.40;;
45274;SDS011;31019;43.780;25.948;2024-02-15T07:56:19;34.47;;;31.35;;
45274;SDS011;31019;43.780;25.948;2024-02-15T07:58:48;33.28;;;30.98;;
45274;SDS011;31019;43.780;25.948;2024-02-15T08:01:17;33.90;;;31.50;;
45274;SDS011;31019;43.780;25.948;2024-02-15T08:03:46;32.17;;;30.02;;
45274;SDS011;31019;43.780;25.948;2024-02-15T08:06:13;31.08;;;29.17;;
45274;SDS011;31019;43.780;25.948;2024-02-15T08:08:46;30.45;;;28.55;;
45274;SDS011;31019;43.780;25.948;2024-02-15T08:11:19;28.40;;;26.50;;
45274;SDS011;31019;43.780;25.948;2024-02-15T08:13:46;26.05;;;24.25;;
45274;SDS011;31019;43.780;25.948;2024-02-15T08:16:19;27.15;;;25.35;;
45274;SDS011;31019;43.780;25.948;2024-02-15T08:18:50;27.00;;;25.20;;
45274;SDS011;31019;43.780;25.948;2024-02-15T08:21:24;27.73;;;25.92;;
45274;SDS011;31019;43.780;25.948;2024-02-15T08:23:54;26.42;;;24.52;;
45274;SDS011;31019;43.780;25.948;2024-02-15T08:26:22;32.17;;;30.17;;
45274;SDS011;31019;43.780;25.948;2024-02-15T08:28:52;28.05;;;26.00;;
45274;SDS011;31019;43.780;25.948;2024-02-15T08:31:31;27.65;;;25.85;;
45274;SDS011;31019;43.780;25.948;2024-02-15T08:34:01;26.77;;;24.92;;
45274;SDS011;31019;43.780;25.948;2024-02-15T08:36:30;27.42;;;25.42;;
45274;SDS011;31019;43.780;25.948;2024-02-15T08:39:01;27.80;;;25.80;;
45274;SDS011;31019;43.780;25.948;2024-02-15T08:41:32;28.48;;;26.27;;
45274;SDS011;31019;43.780;25.948;2024-02-15T08:44:00;32.00;;;29.70;;
45274;SDS011;31019;43.780;25.948;2024-02-15T08:46:34;27.88;;;25.98;;
45274;SDS011;31019;43.780;25.948;2024-02-15T08:49:01;26.40;;;24.50;;
45274;SDS011;31019;43.780;25.948;2024-02-15T08:51:31;28.10;;;26.10;;
45274;SDS011;31019;43.780;25.948;2024-02-15T08:54:05;25.90;;;24.00;;
45274;SDS011;31019;43.780;25.948;2024-02-15T08:56:52;25.95;;;24.05;;
45274;SDS011;31019;43.780;25.948;2024-02-15T08:59:26;26.33;;;24.42;;
45274;SDS011;31019;43.780;25.948;2024-02-15T09:02:08;32.63;;;30.52;;
45274;SDS011;31019;43.780;25.948;2024-02-15T09:04:43;26.85;;;25.05;;
45274;SDS011;31019;43.780;25.948;2024-02-15T09:07:22;37.67;;;26.23;;
45274;SDS011;31019;43.780;25.948;2024-02-15T09:09:53;27.10;;;25.30;;
45274;SDS011;31019;43.780;25.948;2024-02-15T09:12:24;27.30;;;25.50;;
45274;SDS011;31019;43.780;25.948;2024-02-15T09:14:50;26.88;;;25.08;;
45274;SDS011;31019;43.780;25.948;2024-02-15T09:17:22;25.77;;;24.17;;
45274;SDS011;31019;43.780;25.948;2024-02-15T09:22:21;27.88;;;25.83;;
45274;SDS011;31019;43.780;25.948;2024-02-15T09:24:48;25.45;;;23.85;;
45274;SDS011;31019;43.780;25.948;2024-02-15T09:27:16;26.48;;;24.77;;
45274;SDS011;31019;43.780;25.948;2024-02-15T09:29:43;28.65;;;26.67;;
45274;SDS011;31019;43.780;25.948;2024-02-15T09:32:10;27.30;;;25.60;;
45274;SDS011;31019;43.780;25.948;2024-02-15T09:34:37;26.52;;;24.83;;
45274;SDS011;31019;43.780;25.948;2024-02-15T09:37:04;31.23;;;28.95;;
45274;SDS011;31019;43.780;25.948;2024-02-15T09:39:33;30.80;;;28.70;;
45274;SDS011;31019;43.780;25.948;2024-02-15T09:42:04;26.85;;;24.95;;
45274;SDS011;31019;43.780;25.948;2024-02-15T09:44:37;27.70;;;25.70;;
45274;SDS011;31019;43.780;25.948;2024-02-15T09:47:10;31.23;;;29.33;;
45274;SDS011;31019;43.780;25.948;2024-02-15T09:49:40;25.27;;;23.38;;
45274;SDS011;31019;43.780;25.948;2024-02-15T09:52:10;25.60;;;23.70;;
45274;SDS011;31019;43.780;25.948;2024-02-15T09:54:41;45.28;;;42.58;;
45274;SDS011;31019;43.780;25.948;2024-02-15T09:57:09;44.58;;;41.88;;
45274;SDS011;31019;43.780;25.948;2024-02-15T09:59:38;42.90;;;40.30;;
45274;SDS011;31019;43.780;25.948;2024-02-15T10:02:09;38.33;;;35.92;;
45274;SDS011;31019;43.780;25.948;2024-02-15T10:04:39;36.80;;;34.70;;
45274;SDS011;31019;43.780;25.948;2024-02-15T10:07:08;31.85;;;29.73;;
45274;SDS011;31019;43.780;25.948;2024-02-15T10:09:35;24.88;;;23.08;;
45274;SDS011;31019;43.780;25.948;2024-02-15T10:12:06;24.25;;;22.75;;
45274;SDS011;31019;43.780;25.948;2024-02-15T10:14:34;27.05;;;25.02;;
45274;SDS011;31019;43.780;25.948;2024-02-15T10:17:06;27.67;;;25.77;;
45274;SDS011;31019;43.780;25.948;2024-02-15T10:19:36;41.03;;;38.63;;
45274;SDS011;31019;43.780;25.948;2024-02-15T10:22:06;40.45;;;37.95;;
45274;SDS011;31019;43.780;25.948;2024-02-15T10:24:34;46.17;;;43.08;;
45274;SDS011;31019;43.780;25.948;2024-02-15T10:27:07;37.95;;;35.45;;
45274;SDS011;31019;43.780;25.948;2024-02-15T10:29:35;31.83;;;29.63;;
45274;SDS011;31019;43.780;25.948;2024-02-15T10:32:05;38.42;;;35.92;;
45274;SDS011;31019;43.780;25.948;2024-02-15T10:34:36;37.80;;;35.40;;
45274;SDS011;31019;43.780;25.948;2024-02-15T10:37:11;30.88;;;28.88;;
45274;SDS011;31019;43.780;25.948;2024-02-15T10:39:39;25.73;;;24.02;;
45274;SDS011;31019;43.780;25.948;2024-02-15T10:42:06;25.92;;;24.23;;
45274;SDS011;31019;43.780;25.948;2024-02-15T10:44:36;28.35;;;25.80;;
45274;SDS011;31019;43.780;25.948;2024-02-15T10:47:07;23.65;;;22.05;;
45274;SDS011;31019;43.780;25.948;2024-02-15T10:49:36;36.15;;;33.85;;
45274;SDS011;31019;43.780;25.948;2024-02-15T10:52:04;33.80;;;31.70;;
45274;SDS011;31019;43.780;25.948;2024-02-15T10:54:42;34.25;;;32.10;;
45274;SDS011;31019;43.780;25.948;2024-02-15T10:57:13;37.80;;;35.50;;
45274;SDS011;31019;43.780;25.948;2024-02-15T10:59:48;36.63;;;34.33;;
45274;SDS011;31019;43.780;25.948;2024-02-15T11:02:25;26.80;;;24.90;;
45274;SDS011;31019;43.780;25.948;2024-02-15T11:07:31;29.20;;;27.30;;
45274;SDS011;31019;43.780;25.948;2024-02-15T11:10:00;29.23;;;27.33;;
45274;SDS011;31019;43.780;25.948;2024-02-15T11:12:30;27.10;;;25.30;;
45274;SDS011;31019;43.780;25.948;2024-02-15T11:14:57;28.73;;;26.75;;
45274;SDS011;31019;43.780;25.948;2024-02-15T11:23:23;36.08;;;33.58;;
45274;SDS011;31019;43.780;25.948;2024-02-15T11:25:52;35.70;;;33.30;;
45274;SDS011;31019;43.780;25.948;2024-02-15T11:28:38;37.67;;;35.28;;
45274;SDS011;31019;43.780;25.948;2024-02-15T11:31:07;40.85;;;38.40;;
45274;SDS011;31019;43.780;25.948;2024-02-15T11:34:00;37.95;;;35.45;;
45274;SDS011;31019;43.780;25.948;2024-02-15T11:40:24;27.92;;;26.10;;
45274;SDS011;31019;43.780;25.948;2024-02-15T11:42:52;25.40;;;23.65;;
45274;SDS011;31019;43.780;25.948;2024-02-15T11:45:20;34.55;;;32.42;;
45274;SDS011;31019;43.780;25.948;2024-02-15T11:47:48;35.85;;;33.55;;
45274;SDS011;31019;43.780;25.948;2024-02-15T11:50:18;30.40;;;28.40;;
45274;SDS011;31019;43.780;25.948;2024-02-15T11:52:46;37.50;;;35.10;;
45274;SDS011;31019;43.780;25.948;2024-02-15T11:55:18;37.57;;;35.17;;
45274;SDS011;31019;43.780;25.948;2024-02-15T11:57:57;25.50;;;23.67;;
45274;SDS011;31019;43.780;25.948;2024-02-15T12:00:30;26.15;;;24.27;;
45274;SDS011;31019;43.780;25.948;2024-02-15T12:03:15;25.50;;;23.70;;
45274;SDS011;31019;43.780;25.948;2024-02-15T12:06:01;37.67;;;35.38;;
45274;SDS011;31019;43.780;25.948;2024-02-15T12:08:55;42.60;;;40.10;;
45274;SDS011;31019;43.780;25.948;2024-02-15T12:14:29;36.22;;;34.03;;
45274;SDS011;31019;43.780;25.948;2024-02-15T12:17:23;29.30;;;27.10;;
45274;SDS011;31019;43.780;25.948;2024-02-15T12:20:07;27.45;;;25.55;;
45274;SDS011;31019;43.780;25.948;2024-02-15T12:22:41;29.08;;;27.08;;
45274;SDS011;31019;43.780;25.948;2024-02-15T12:25:14;27.55;;;25.55;;
45274;SDS011;31019;43.780;25.948;2024-02-15T12:27:42;31.30;;;29.40;;
45274;SDS011;31019;43.780;25.948;2024-02-15T12:30:12;37.08;;;33.50;;
45274;SDS011;31019;43.780;25.948;2024-02-15T12:32:45;35.22;;;33.13;;
45274;SDS011;31019;43.780;25.948;2024-02-15T12:35:13;33.28;;;31.30;;
45274;SDS011;31019;43.780;25.948;2024-02-15T12:37:43;35.88;;;33.67;;
45274;SDS011;31019;43.780;25.948;2024-02-15T12:40:17;25.70;;;24.10;;
45274;SDS011;31019;43.780;25.948;2024-02-15T12:42:45;28.88;;;27.08;;
45274;SDS011;31019;43.780;25.948;2024-02-15T12:45:16;29.90;;;28.00;;
45274;SDS011;31019;43.780;25.948;2024-02-15T12:47:46;36.42;;;34.03;;
45274;SDS011;31019;43.780;25.948;2024-02-15T12:50:17;41.78;;;39.50;;
45274;SDS011;31019;43.780;25.948;2024-02-15T12:52:56;24.63;;;23.02;;
45274;SDS011;31019;43.780;25.948;2024-02-15T12:55:30;26.98;;;25.17;;
45274;SDS011;31019;43.780;25.948;2024-02-15T12:58:00;27.75;;;26.05;;
45274;SDS011;31019;43.780;25.948;2024-02-15T13:00:31;27.80;;;25.83;;
45274;SDS011;31019;43.780;25.948;2024-02-15T13:03:05;29.15;;;27.25;;
45274;SDS011;31019;43.780;25.948;2024-02-15T13:05:35;27.70;;;26.00;;
45274;SDS011;31019;43.780;25.948;2024-02-15T13:08:04;25.85;;;24.25;;
45274;SDS011;31019;43.780;25.948;2024-02-15T13:10:35;21.98;;;20.52;;
45274;SDS011;31019;43.780;25.948;2024-02-15T13:13:04;25.55;;;24.05;;
45274;SDS011;31019;43.780;25.948;2024-02-15T13:15:32;25.30;;;23.70;;
45274;SDS011;31019;43.780;25.948;2024-02-15T13:17:59;25.60;;;24.00;;
45274;SDS011;31019;43.780;25.948;2024-02-15T13:20:29;26.50;;;25.00;;
45274;SDS011;31019;43.780;25.948;2024-02-15T13:22:59;25.77;;;24.27;;
45274;SDS011;31019;43.780;25.948;2024-02-15T13:25:29;26.65;;;25.05;;
45274;SDS011;31019;43.780;25.948;2024-02-15T13:27:56;27.63;;;26.02;;
45274;SDS011;31019;43.780;25.948;2024-02-15T13:30:25;25.77;;;24.27;;
45274;SDS011;31019;43.780;25.948;2024-02-15T13:32:53;26.30;;;24.70;;
45274;SDS011;31019;43.780;25.948;2024-02-15T13:35:20;25.48;;;23.98;;
45274;SDS011;31019;43.780;25.948;2024-02-15T13:37:49;26.40;;;24.90;;
45274;SDS011;31019;43.780;25.948;2024-02-15T13:40:19;26.75;;;25.15;;
45274;SDS011;31019;43.780;25.948;2024-02-15T13:42:52;24.70;;;23.20;;
45274;SDS011;31019;43.780;25.948;2024-02-15T13:47:58;24.42;;;22.92;;
45274;SDS011;31019;43.780;25.948;2024-02-15T13:50:30;25.63;;;23.92;;
45274;SDS011;31019;43.780;25.948;2024-02-15T13:52:57;25.65;;;23.95;;
45274;SDS011;31019;43.780;25.948;2024-02-15T13:55:31;39.20;;;36.90;;
45274;SDS011;31019;43.780;25.948;2024-02-15T13:58:03;22.77;;;21.27;;
45274;SDS011;31019;43.780;25.948;2024-02-15T14:00:36;25.45;;;23.75;;
45274;SDS011;31019;43.780;25.948;2024-02-15T14:03:07;28.02;;;26.38;;
45274;SDS011;31019;43.780;25.948;2024-02-15T14:05:35;23.88;;;22.27;;
45274;SDS011;31019;43.780;25.948;2024-02-15T14:08:08;26.55;;;24.85;;
45274;SDS011;31019;43.780;25.948;2024-02-15T14:10:38;29.05;;;27.25;;
45274;SDS011;31019;43.780;25.948;2024-02-15T14:13:06;28.77;;;26.98;;
45274;SDS011;31019;43.780;25.948;2024-02-15T14:15:34;25.20;;;23.33;;
45274;SDS011;31019;43.780;25.948;2024-02-15T14:18:06;23.88;;;22.35;;
45274;SDS011;31019;43.780;25.948;2024-02-15T14:23:04;26.63;;;24.92;;
45274;SDS011;31019;43.780;25.948;2024-02-15T14:25:31;24.00;;;22.40;;
45274;SDS011;31019;43.780;25.948;2024-02-15T14:28:01;25.70;;;24.10;;
45274;SDS011;31019;43.780;25.948;2024-02-15T14:30:31;24.25;;;22.65;;
45274;SDS011;31019;43.780;25.948;2024-02-15T14:33:16;23.02;;;21.42;;
45274;SDS011;31019;43.780;25.948;2024-02-15T14:35:44;22.27;;;20.67;;
45274;SDS011;31019;43.780;25.948;2024-02-15T14:38:13;24.20;;;22.50;;
45274;SDS011;31019;43.780;25.948;2024-02-15T14:40:42;25.88;;;24.08;;
45274;SDS011;31019;43.780;25.948;2024-02-15T14:43:11;24.95;;;23.00;;
45274;SDS011;31019;43.780;25.948;2024-02-15T14:45:41;23.50;;;21.90;;
45274;SDS011;31019;43.780;25.948;2024-02-15T14:48:09;25.55;;;23.80;;
45274;SDS011;31019;43.780;25.948;2024-02-15T14:50:38;23.30;;;21.83;;
45274;SDS011;31019;43.780;25.948;2024-02-15T14:55:38;22.63;;;21.05;;
45274;SDS011;31019;43.780;25.948;2024-02-15T14:58:08;21.92;;;20.33;;
45274;SDS011;31019;43.780;25.948;2024-02-15T15:00:38;23.05;;;21.42;;
45274;SDS011;31019;43.780;25.948;2024-02-15T15:03:11;24.55;;;22.75;;
45274;SDS011;31019;43.780;25.948;2024-02-15T15:05:38;24.92;;;23.13;;
45274;SDS011;31019;43.780;25.948;2024-02-15T15:08:22;22.40;;;20.80;;
45274;SDS011;31019;43.780;25.948;2024-02-15T15:11:06;21.75;;;20.15;;
45274;SDS011;31019;43.780;25.948;2024-02-15T15:13:54;23.90;;;22.40;;
45274;SDS011;31019;43.780;25.948;2024-02-15T15:16:21;26.80;;;24.83;;
45274;SDS011;31019;43.780;25.948;2024-02-15T15:19:01;22.90;;;21.30;;
45274;SDS011;31019;43.780;25.948;2024-02-15T15:24:00;23.15;;;21.55;;
45274;SDS011;31019;43.780;25.948;2024-02-15T15:26:32;22.70;;;21.10;;
45274;SDS011;31019;43.780;25.948;2024-02-15T15:28:59;24.42;;;22.63;;
45274;SDS011;31019;43.780;25.948;2024-02-15T15:31:25;27.00;;;24.77;;
45274;SDS011;31019;43.780;25.948;2024-02-15T15:33:53;24.70;;;22.70;;